Terminal Aerodrome Forecast
Issued by NWS

Home | Current Version | Previous Version | Text Only | Print | Product List | Glossary On
Versions: 1 2 3 4 5 6 7 8 9 10 11 12 13 14 15 16 17 18 19 20 21 22 23 24 25
194
FTUS45 KLKN 010520
TAFTPH
TAF
KTPH 010520Z 0106/0206 VRB06KT P6SM SCT120
     FM010800 01007KT P6SM SKC
     FM011700 19010G17KT P6SM SKC
     FM012000 21015G25KT P6SM SKC
     FM020200 VRB06KT P6SM SKC=

USA.gov is the U.S. government's official web portal to all federal, state and local government web resources and services.